Time;durP1;ratioP1;P1;durP2;ratioP2;P2;SDS_P1;SDS_P2;PMS_P1;PMS_P2;Temp;Humidity;BMP_temperature;BMP_pressure;BME280_temperature;BME280_humidity;BME280_pressure;Samples;Min_cycle;Max_cycle;Signal;HPM_P1;HPM_P2
2022/03/09 00:00:55;;;;;;;0.00;0.00;;;;;;;1.40;47.26;99111.50;5109869;28;20215;-57
2022/03/09 00:03:22;;;;;;;0.00;0.00;;;;;;;1.40;46.69;99119.22;5109897;28;20174;-57
2022/03/09 00:05:50;;;;;;;0.00;0.00;;;;;;;1.55;46.20;99119.34;5109488;28;20195;-57
2022/03/09 00:08:17;;;;;;;0.00;0.00;;;;;;;1.57;46.65;99118.31;5109623;28;20205;-58
2022/03/09 00:10:43;;;;;;;0.00;0.00;;;;;;;1.60;46.38;99127.63;5110091;28;20201;-57
2022/03/09 00:13:10;;;;;;;0.00;0.00;;;;;;;1.62;46.63;99113.78;5109117;28;20208;-57
2022/03/09 00:15:37;;;;;;;0.00;0.00;;;;;;;1.59;46.27;99124.22;5112048;28;20216;-57
2022/03/09 00:18:03;;;;;;;0.00;0.00;;;;;;;1.60;46.20;99122.47;5113822;28;20178;-58
2022/03/09 00:20:30;;;;;;;0.00;0.00;;;;;;;1.68;45.37;99116.94;5113406;28;20203;-57
2022/03/09 00:22:58;;;;;;;0.00;0.00;;;;;;;1.62;46.25;99125.78;5112960;28;20182;-57
2022/03/09 00:25:25;;;;;;;0.00;0.00;;;;;;;1.58;46.82;99127.72;5110984;28;20669;-57
2022/03/09 00:27:52;;;;;;;0.00;0.00;;;;;;;1.45;47.56;99131.84;5107298;28;20192;-57
2022/03/09 00:30:19;;;;;;;0.00;0.00;;;;;;;1.35;47.15;99136.66;5108527;28;20205;-57
2022/03/09 00:32:46;;;;;;;0.00;0.00;;;;;;;1.23;47.65;99127.78;5110563;28;20287;-57
2022/03/09 00:35:13;;;;;;;0.00;0.00;;;;;;;1.15;48.17;99127.34;5109889;28;20188;-57
2022/03/09 00:37:40;;;;;;;0.00;0.00;;;;;;;1.10;47.89;99132.75;5112792;28;20186;-57
2022/03/09 00:40:09;;;;;;;0.00;0.00;;;;;;;1.20;47.25;99140.81;5113345;28;20848;-57
2022/03/09 00:42:37;;;;;;;0.00;0.00;;;;;;;1.28;46.53;99135.28;5112793;28;20199;-57
2022/03/09 00:45:05;;;;;;;0.00;0.00;;;;;;;1.37;45.96;99137.41;5112753;28;20184;-57
2022/03/09 00:47:32;;;;;;;0.00;0.00;;;;;;;1.42;47.07;99139.72;5112114;28;20185;-57
2022/03/09 00:49:58;;;;;;;0.00;0.00;;;;;;;1.38;46.85;99146.78;5107404;28;20219;-57
2022/03/09 00:52:26;;;;;;;0.00;0.00;;;;;;;1.39;47.93;99143.28;5106124;28;20212;-58
2022/03/09 00:54:52;;;;;;;0.00;0.00;;;;;;;1.27;47.82;99138.78;5106206;28;20783;-57
2022/03/09 00:57:20;;;;;;;0.00;0.00;;;;;;;1.10;48.87;99142.19;5109601;28;20193;-58
2022/03/09 00:59:47;;;;;;;0.00;0.00;;;;;;;0.93;49.10;99150.75;5112423;28;20220;-57
2022/03/09 01:02:14;;;;;;;0.00;0.00;;;;;;;0.83;49.02;99147.84;5111471;28;20196;-57
2022/03/09 01:04:40;;;;;;;0.00;0.00;;;;;;;0.91;49.21;99152.56;5112087;28;20187;-57
2022/03/09 01:07:07;;;;;;;0.00;0.00;;;;;;;0.92;49.28;99151.66;5112669;28;20232;-57
2022/03/09 01:09:34;;;;;;;0.00;0.00;;;;;;;0.93;49.73;99161.88;5112705;28;20215;-57
2022/03/09 01:12:03;;;;;;;0.00;0.00;;;;;;;0.84;49.62;99159.78;5112514;28;20211;-57
2022/03/09 01:14:31;;;;;;;0.00;0.00;;;;;;;0.77;50.83;99156.66;5111765;28;20381;-57
2022/03/09 01:16:58;;;;;;;0.00;0.00;;;;;;;0.66;50.38;99146.91;5112367;28;20292;-57
2022/03/09 01:19:24;;;;;;;0.00;0.00;;;;;;;0.52;51.54;99150.16;5112424;28;20220;-57
2022/03/09 01:21:51;;;;;;;0.00;0.00;;;;;;;0.37;51.92;99150.91;5112109;28;20194;-57
2022/03/09 01:24:18;;;;;;;0.00;0.00;;;;;;;0.28;52.53;99149.59;5112087;28;20177;-57
2022/03/09 01:26:45;;;;;;;0.00;0.00;;;;;;;0.23;53.37;99146.41;5110973;28;20183;-57
2022/03/09 01:29:11;;;;;;;0.00;0.00;;;;;;;0.18;52.78;99144.06;5112209;28;20186;-57
2022/03/09 01:31:40;;;;;;;0.00;0.00;;;;;;;0.10;52.81;99154.66;5112191;28;20191;-57
2022/03/09 01:34:07;;;;;;;0.00;0.00;;;;;;;-0.01;53.23;99144.09;5111598;28;20206;-57
2022/03/09 01:36:34;;;;;;;0.00;0.00;;;;;;;-0.10;52.67;99153.03;5112111;28;20194;-57
2022/03/09 01:39:01;;;;;;;0.00;0.00;;;;;;;-0.19;53.04;99146.59;5111907;28;20182;-57
2022/03/09 01:41:28;;;;;;;0.00;0.00;;;;;;;-0.28;53.69;99149.56;5112084;28;20204;-57
2022/03/09 01:44:09;;;;;;;0.00;0.00;;;;;;;-0.28;55.62;99147.00;5111440;28;20183;-57
2022/03/09 01:46:35;;;;;;;0.00;0.00;;;;;;;-0.30;55.55;99146.25;5112136;28;20702;-57
2022/03/09 01:49:04;;;;;;;0.00;0.00;;;;;;;-0.48;55.93;99146.16;5111911;28;20189;-57
2022/03/09 01:51:32;;;;;;;0.00;0.00;;;;;;;-0.58;55.31;99147.47;5111590;28;20182;-57
2022/03/09 01:53:59;;;;;;;0.00;0.00;;;;;;;-0.65;55.10;99136.66;5092890;28;20207;-57
2022/03/09 01:56:26;;;;;;;0.00;0.00;;;;;;;-0.75;54.83;99143.91;5104402;28;20221;-56
2022/03/09 01:58:52;;;;;;;0.00;0.00;;;;;;;-0.82;56.47;99142.50;5111535;28;20183;-57
2022/03/09 02:01:21;;;;;;;0.00;0.00;;;;;;;-0.96;55.56;99137.97;5109350;28;20312;-58
2022/03/09 02:03:48;;;;;;;0.00;0.00;;;;;;;-0.99;56.53;99127.00;5110490;28;20182;-57
2022/03/09 02:06:16;;;;;;;0.00;0.00;;;;;;;-1.04;58.36;99128.03;5110577;28;20182;-58
2022/03/09 02:11:29;;;;;;;0.00;0.00;;;;;;;-1.14;56.42;99134.47;5111488;28;20193;-57
2022/03/09 02:13:56;;;;;;;0.00;0.00;;;;;;;-1.16;56.44;99127.72;5110904;28;20203;-58
2022/03/09 02:16:22;;;;;;;0.00;0.00;;;;;;;-1.19;56.79;99126.94;5111086;28;20190;-57
2022/03/09 02:18:49;;;;;;;0.00;0.00;;;;;;;-1.31;58.12;99127.47;5111222;28;20204;-58
2022/03/09 02:21:20;;;;;;;0.00;0.00;;;;;;;-1.37;57.55;99130.25;5111172;28;20219;-57
2022/03/09 02:23:48;;;;;;;0.00;0.00;;;;;;;-1.43;59.61;99128.81;5111327;28;20183;-58
2022/03/09 02:26:15;;;;;;;0.00;0.00;;;;;;;-1.44;58.27;99133.97;5110523;28;20190;-57
2022/03/09 02:28:47;;;;;;;0.00;0.00;;;;;;;-1.45;58.88;99135.72;5110873;28;20243;-57
2022/03/09 02:31:14;;;;;;;0.00;0.00;;;;;;;-1.50;59.37;99125.63;5110868;28;20869;-58
2022/03/09 02:33:44;;;;;;;0.00;0.00;;;;;;;-1.54;58.60;99124.09;5092451;28;20605;-57
2022/03/09 02:36:11;;;;;;;0.00;0.00;;;;;;;-1.55;58.54;99131.84;5110325;28;20233;-57
2022/03/09 02:38:38;;;;;;;0.00;0.00;;;;;;;-1.53;58.23;99130.06;5110714;28;20592;-57
2022/03/09 02:41:06;;;;;;;0.00;0.00;;;;;;;-1.58;57.53;99121.75;5110695;28;20217;-57
2022/03/09 02:43:33;;;;;;;0.00;0.00;;;;;;;-1.60;59.39;99121.81;5110083;28;20182;-57
2022/03/09 02:46:00;;;;;;;0.00;0.00;;;;;;;-1.67;58.57;99118.66;5110586;28;20185;-57
2022/03/09 02:48:27;;;;;;;0.00;0.00;;;;;;;-1.61;57.44;99120.16;5111019;28;20550;-58
2022/03/09 02:50:54;;;;;;;0.00;0.00;;;;;;;-1.70;60.01;99123.06;5105126;28;20213;-57
2022/03/09 02:53:20;;;;;;;0.00;0.00;;;;;;;-1.70;58.33;99121.34;5110132;28;20185;-57
2022/03/09 02:55:48;;;;;;;0.00;0.00;;;;;;;-1.81;60.49;99126.88;5108896;28;20567;-57
2022/03/09 02:58:16;;;;;;;0.00;0.00;;;;;;;-1.95;59.39;99126.59;5105647;28;20213;-58
2022/03/09 03:00:43;;;;;;;0.00;0.00;;;;;;;-1.98;58.98;99126.69;5103351;28;20213;-58
2022/03/09 03:03:10;;;;;;;0.00;0.00;;;;;;;-2.04;60.56;99125.19;5098672;28;20210;-58
2022/03/09 03:05:36;;;;;;;0.00;0.00;;;;;;;-2.14;60.49;99129.84;5107834;28;20194;-57
2022/03/09 03:08:04;;;;;;;0.00;0.00;;;;;;;-2.00;60.49;99131.88;5109874;28;20179;-58
2022/03/09 03:10:30;;;;;;;0.00;0.00;;;;;;;-1.95;59.94;99134.25;5110025;28;20217;-58
2022/03/09 03:12:57;;;;;;;0.00;0.00;;;;;;;-1.98;61.40;99130.06;5109969;28;20232;-59
2022/03/09 03:15:25;;;;;;;0.00;0.00;;;;;;;-2.02;61.02;99140.50;5108517;28;20209;-59
2022/03/09 03:17:52;;;;;;;0.00;0.00;;;;;;;-2.11;60.67;99139.97;5103269;28;20190;-58
2022/03/09 03:20:18;;;;;;;0.00;0.00;;;;;;;-2.08;60.08;99141.56;5110821;28;20260;-58
2022/03/09 03:22:45;;;;;;;0.00;0.00;;;;;;;-2.06;60.32;99151.75;5110493;28;20186;-58
2022/03/09 03:25:12;;;;;;;0.00;0.00;;;;;;;-2.05;60.72;99154.22;5110246;28;20177;-58
2022/03/09 03:27:39;;;;;;;0.00;0.00;;;;;;;-2.17;61.02;99162.38;5110654;28;20186;-59
2022/03/09 03:30:07;;;;;;;0.00;0.00;;;;;;;-2.27;62.08;99165.28;5110691;28;20293;-58
2022/03/09 03:32:35;;;;;;;0.00;0.00;;;;;;;-2.22;62.30;99175.31;5110421;28;20191;-58
2022/03/09 03:35:02;;;;;;;0.00;0.00;;;;;;;-2.23;62.13;99177.06;5091921;28;20222;-59
2022/03/09 03:37:29;;;;;;;0.00;0.00;;;;;;;-2.28;61.50;99176.41;5109611;28;20183;-58
2022/03/09 03:39:55;;;;;;;0.00;0.00;;;;;;;-2.39;61.84;99179.31;5105452;28;20268;-59
2022/03/09 03:42:22;;;;;;;0.00;0.00;;;;;;;-2.32;62.17;99176.53;5108898;28;20191;-58
2022/03/09 03:44:50;;;;;;;0.00;0.00;;;;;;;-2.29;62.21;99177.28;5098067;28;20188;-58
2022/03/09 03:47:17;;;;;;;0.00;0.00;;;;;;;-2.34;61.61;99178.31;5110134;28;20197;-59
2022/03/09 03:49:45;;;;;;;0.00;0.00;;;;;;;-2.38;61.70;99173.31;5111382;28;20295;-59
2022/03/09 03:52:12;;;;;;;0.00;0.00;;;;;;;-2.39;60.82;99173.41;5114033;28;20190;-58
2022/03/09 03:54:38;;;;;;;0.00;0.00;;;;;;;-2.42;60.92;99178.63;5113792;28;20206;-57
2022/03/09 03:57:06;;;;;;;0.00;0.00;;;;;;;-2.44;61.22;99170.97;5114397;28;20713;-58
2022/03/09 03:59:32;;;;;;;0.00;0.00;;;;;;;-2.42;62.31;99176.06;5114260;28;20287;-58
2022/03/09 04:02:00;;;;;;;0.00;0.00;;;;;;;-2.45;61.86;99171.06;5101228;28;20210;-58
2022/03/09 04:04:26;;;;;;;0.00;0.00;;;;;;;-2.46;62.07;99174.50;5093442;28;20178;-57
2022/03/09 04:06:55;;;;;;;0.00;0.00;;;;;;;-2.50;63.04;99175.50;5093696;28;20183;-57
2022/03/09 04:09:22;;;;;;;0.00;0.00;;;;;;;-2.61;62.25;99174.16;5093774;28;20215;-57
2022/03/09 04:11:48;;;;;;;0.00;0.00;;;;;;;-2.71;62.37;99168.53;5093705;28;20412;-58
2022/03/09 04:14:19;;;;;;;0.00;0.00;;;;;;;-2.73;62.48;99169.47;5093170;28;20206;-58
2022/03/09 04:16:47;;;;;;;0.00;0.00;;;;;;;-2.77;61.96;99170.47;5093639;28;20195;-58
2022/03/09 04:19:14;;;;;;;0.00;0.00;;;;;;;-2.85;62.57;99174.09;5093684;28;20194;-58
2022/03/09 04:21:40;;;;;;;0.00;0.00;;;;;;;-2.79;62.65;99162.84;5093275;28;20199;-58
2022/03/09 04:24:09;;;;;;;0.00;0.00;;;;;;;-2.82;62.85;99163.78;5095443;28;20271;-58
2022/03/09 04:26:35;;;;;;;0.00;0.00;;;;;;;-2.82;62.48;99156.13;5113840;28;20177;-58
2022/03/09 04:29:03;;;;;;;0.00;0.00;;;;;;;-2.84;62.15;99159.63;5113793;28;20185;-58
2022/03/09 04:31:30;;;;;;;0.00;0.00;;;;;;;-2.78;61.61;99161.13;5113954;28;20538;-58
2022/03/09 04:33:57;;;;;;;0.00;0.00;;;;;;;-2.83;62.38;99161.28;5113231;28;20217;-57
2022/03/09 04:36:24;;;;;;;0.00;0.00;;;;;;;-2.84;61.29;99160.44;5113654;28;20200;-57
2022/03/09 04:38:51;;;;;;;0.00;0.00;;;;;;;-2.86;62.11;99159.66;5113662;28;20209;-57
2022/03/09 04:41:19;;;;;;;0.00;0.00;;;;;;;-2.94;61.80;99156.53;5113822;28;20361;-58
2022/03/09 04:43:46;;;;;;;0.00;0.00;;;;;;;-2.92;61.93;99162.44;5113262;28;20236;-57
2022/03/09 04:46:13;;;;;;;0.00;0.00;;;;;;;-2.97;62.53;99154.09;5113142;28;20185;-57
2022/03/09 04:48:40;;;;;;;0.00;0.00;;;;;;;-2.93;62.38;99153.09;5113280;28;20186;-57
2022/03/09 04:51:07;;;;;;;0.00;0.00;;;;;;;-2.78;61.48;99150.91;5113686;28;20346;-58
2022/03/09 04:53:34;;;;;;;0.00;0.00;;;;;;;-2.87;63.38;99150.34;5113327;28;20665;-58
2022/03/09 04:56:01;;;;;;;0.00;0.00;;;;;;;-2.92;61.97;99146.28;5113090;28;20618;-58
2022/03/09 04:58:29;;;;;;;0.00;0.00;;;;;;;-2.89;62.54;99147.00;5113485;28;20201;-57
2022/03/09 05:00:55;;;;;;;0.00;0.00;;;;;;;-2.94;62.71;99142.94;5109954;28;20214;-57
2022/03/09 05:03:22;;;;;;;0.00;0.00;;;;;;;-2.97;62.98;99144.72;5092602;28;20201;-57
2022/03/09 05:05:49;;;;;;;0.00;0.00;;;;;;;-2.99;63.43;99145.63;5092523;28;20188;-57
2022/03/09 05:08:15;;;;;;;0.00;0.00;;;;;;;-2.84;62.46;99145.13;5092915;28;20195;-57
2022/03/09 05:10:43;;;;;;;0.00;0.00;;;;;;;-2.94;62.91;99148.06;5093238;28;20223;-57
2022/03/09 05:13:10;;;;;;;0.00;0.00;;;;;;;-2.95;63.04;99149.75;5092591;28;20677;-57
2022/03/09 05:15:38;;;;;;;0.00;0.00;;;;;;;-3.00;62.24;99149.09;5092288;28;20209;-59
2022/03/09 05:18:04;;;;;;;0.00;0.00;;;;;;;-2.96;62.20;99158.31;5092701;28;20562;-58
2022/03/09 05:20:31;;;;;;;0.00;0.00;;;;;;;-3.03;62.51;99167.06;5092861;28;20207;-58
2022/03/09 05:22:58;;;;;;;0.00;0.00;;;;;;;-3.07;62.95;99168.91;5092427;28;20184;-58
2022/03/09 05:25:25;;;;;;;0.00;0.00;;;;;;;-3.09;63.01;99168.13;5092184;28;20180;-57
2022/03/09 05:27:52;;;;;;;0.00;0.00;;;;;;;-3.09;63.40;99172.38;5092457;28;20192;-57
2022/03/09 05:30:18;;;;;;;0.00;0.00;;;;;;;-3.09;63.34;99178.34;5092363;28;20727;-57
2022/03/09 05:32:46;;;;;;;0.00;0.00;;;;;;;-3.04;63.57;99171.34;5092218;28;20182;-57
2022/03/09 05:35:13;;;;;;;0.00;0.00;;;;;;;-3.05;63.57;99177.34;5091873;28;20214;-57
2022/03/09 05:37:42;;;;;;;0.00;0.00;;;;;;;-3.09;62.84;99180.03;5092215;28;20235;-57
2022/03/09 05:40:09;;;;;;;0.00;0.00;;;;;;;-3.04;63.24;99183.28;5092316;28;20202;-57
2022/03/09 05:42:36;;;;;;;0.00;0.00;;;;;;;-3.13;63.71;99192.09;5091981;28;20576;-58
2022/03/09 05:45:04;;;;;;;0.00;0.00;;;;;;;-3.09;63.88;99196.22;5091635;28;20187;-57
2022/03/09 05:47:31;;;;;;;0.00;0.00;;;;;;;-3.16;64.52;99203.22;5093008;28;20183;-58
2022/03/09 05:50:01;;;;;;;0.00;0.00;;;;;;;-3.12;63.30;99202.25;5112361;28;20202;-58
2022/03/09 05:52:28;;;;;;;0.00;0.00;;;;;;;-3.16;63.10;99203.22;5112190;28;20195;-58
2022/03/09 05:54:55;;;;;;;0.00;0.00;;;;;;;-2.92;63.99;99203.31;5111930;28;20199;-58
2022/03/09 05:57:23;;;;;;;0.00;0.00;;;;;;;-2.76;62.00;99213.00;5112140;28;20185;-57
2022/03/09 05:59:50;;;;;;;0.00;0.00;;;;;;;-2.73;62.79;99212.91;5112081;28;20853;-58
2022/03/09 06:02:19;;;;;;;0.00;0.00;;;;;;;-2.73;63.26;99216.31;5098011;28;20186;-57
2022/03/09 06:04:47;;;;;;;0.00;0.00;;;;;;;-2.75;62.65;99217.22;5091517;28;20186;-57
2022/03/09 06:07:15;;;;;;;0.00;0.00;;;;;;;-2.73;62.79;99221.41;5091718;28;20179;-57
2022/03/09 06:09:42;;;;;;;0.00;0.00;;;;;;;-2.75;63.00;99223.19;5091759;28;20206;-57
2022/03/09 06:12:10;;;;;;;0.00;0.00;;;;;;;-2.58;63.00;99219.19;5090515;28;20223;-57
2022/03/09 06:14:36;;;;;;;0.00;0.00;;;;;;;-2.66;62.69;99224.59;5091134;28;20198;-57
2022/03/09 06:17:04;;;;;;;0.00;0.00;;;;;;;-2.66;62.92;99227.16;5091616;28;20213;-57
2022/03/09 06:19:30;;;;;;;0.00;0.00;;;;;;;-2.70;62.65;99235.81;5091533;28;20259;-58
2022/03/09 06:21:57;;;;;;;0.00;0.00;;;;;;;-2.73;62.67;99231.66;5091247;28;20195;-58
2022/03/09 06:24:25;;;;;;;0.00;0.00;;;;;;;-2.70;63.22;99230.69;5091119;28;20188;-58
2022/03/09 06:26:53;;;;;;;0.00;0.00;;;;;;;-2.67;63.90;99236.56;5091378;28;20202;-58
2022/03/09 06:29:22;;;;;;;0.00;0.00;;;;;;;-2.60;62.53;99237.16;5097123;28;20320;-58
2022/03/09 06:31:48;;;;;;;0.00;0.00;;;;;;;-2.53;63.29;99232.66;5111718;28;20189;-58
2022/03/09 06:34:15;;;;;;;0.00;0.00;;;;;;;-2.52;64.39;99230.06;5111200;28;20197;-58
2022/03/09 06:36:44;;;;;;;0.00;0.00;;;;;;;-2.49;64.18;99235.97;5093458;28;20213;-58
2022/03/09 06:39:12;;;;;;;0.00;0.00;;;;;;;-2.41;62.66;99241.66;5111633;28;20766;-59
2022/03/09 06:41:42;;;;;;;0.00;0.00;;;;;;;-2.37;62.50;99240.66;5111436;28;20192;-58
2022/03/09 06:44:08;;;;;;;0.00;0.00;;;;;;;-2.28;61.08;99234.38;5110951;28;20192;-58
2022/03/09 06:46:35;;;;;;;0.00;0.00;;;;;;;-2.21;61.32;99235.00;5111032;28;20552;-58
2022/03/09 06:49:02;;;;;;;0.00;0.00;;;;;;;-2.19;62.09;99241.72;5111379;28;20181;-58
2022/03/09 06:51:29;;;;;;;0.00;0.00;;;;;;;-2.15;61.80;99237.34;5111386;28;20189;-58
2022/03/09 06:53:56;;;;;;;0.00;0.00;;;;;;;-2.11;61.31;99232.03;5110765;28;20189;-58
2022/03/09 06:56:22;;;;;;;0.00;0.00;;;;;;;-2.01;61.71;99239.38;5108447;28;20201;-58
2022/03/09 06:58:51;;;;;;;0.00;0.00;;;;;;;-2.01;61.49;99247.88;5106858;28;20196;-58
2022/03/09 07:01:18;;;;;;;0.00;0.00;;;;;;;-2.00;61.32;99244.44;5104974;28;20218;-59
2022/03/09 07:03:44;;;;;;;0.00;0.00;;;;;;;-1.84;61.57;99249.00;5108424;28;20331;-60
2022/03/09 07:06:11;;;;;;;0.00;0.00;;;;;;;-1.67;61.72;99256.06;5105392;28;20178;-59
2022/03/09 07:08:38;;;;;;;0.00;0.00;;;;;;;-1.58;61.65;99259.97;5111124;28;20189;-59
2022/03/09 07:11:05;;;;;;;0.00;0.00;;;;;;;-1.56;59.49;99266.69;5111073;28;20202;-60
2022/03/09 07:13:31;;;;;;;0.00;0.00;;;;;;;-1.54;59.57;99272.59;5110760;28;20185;-60
2022/03/09 07:15:59;;;;;;;0.00;0.00;;;;;;;-1.49;61.05;99267.31;5110606;28;20203;-60
2022/03/09 07:18:26;;;;;;;0.00;0.00;;;;;;;-1.45;59.80;99271.44;5110963;28;20237;-60
2022/03/09 07:20:53;;;;;;;0.00;0.00;;;;;;;-1.35;59.82;99272.75;5110893;28;20207;-60
2022/03/09 07:23:20;;;;;;;0.00;0.00;;;;;;;-1.32;62.00;99273.53;5110982;28;20268;-60
2022/03/09 07:25:46;;;;;;;0.00;0.00;;;;;;;-1.25;61.16;99283.47;5113466;28;20184;-60
2022/03/09 07:28:13;;;;;;;0.00;0.00;;;;;;;-1.27;61.29;99279.31;5115174;28;20196;-60
2022/03/09 07:30:40;;;;;;;0.00;0.00;;;;;;;-1.20;61.24;99286.69;5115443;28;20560;-60
2022/03/09 07:33:08;;;;;;;0.00;0.00;;;;;;;-1.08;61.23;99289.66;5114792;28;20185;-60
2022/03/09 07:35:35;;;;;;;0.00;0.00;;;;;;;-1.01;60.61;99290.22;5112780;28;20219;-59
2022/03/09 07:38:02;;;;;;;0.00;0.00;;;;;;;-0.98;61.11;99295.22;5112281;28;20199;-60
2022/03/09 07:40:29;;;;;;;0.00;0.00;;;;;;;-0.82;59.26;99298.84;5114815;28;20207;-59
2022/03/09 07:42:55;;;;;;;0.00;0.00;;;;;;;-0.76;58.74;99296.03;5114751;28;20182;-60
2022/03/09 07:45:22;;;;;;;0.00;0.00;;;;;;;-0.74;59.10;99296.00;5114530;28;20231;-59
2022/03/09 07:47:49;;;;;;;0.00;0.00;;;;;;;-0.71;58.56;99298.44;5114645;28;20208;-60
2022/03/09 07:50:17;;;;;;;0.00;0.00;;;;;;;-0.68;58.83;99300.88;5114755;28;20565;-59
2022/03/09 07:52:44;;;;;;;0.00;0.00;;;;;;;-0.67;58.79;99299.97;5114521;28;20641;-59
2022/03/09 07:55:11;;;;;;;0.00;0.00;;;;;;;-0.59;58.47;99297.09;5114134;28;20197;-59
2022/03/09 07:57:38;;;;;;;0.00;0.00;;;;;;;-0.51;58.77;99299.31;5109095;28;21732;-60
2022/03/09 08:00:06;;;;;;;0.00;0.00;;;;;;;-0.50;58.98;99299.28;5106228;28;20223;-59
2022/03/09 08:02:38;;;;;;;0.00;0.00;;;;;;;-0.42;58.52;99296.38;5110289;28;20213;-60
2022/03/09 08:05:05;;;;;;;0.00;0.00;;;;;;;-0.34;58.42;99301.19;5110581;28;20190;-60
2022/03/09 08:07:34;;;;;;;0.00;0.00;;;;;;;-0.24;58.40;99302.47;5109637;28;20207;-59
2022/03/09 08:10:01;;;;;;;0.00;0.00;;;;;;;-0.10;57.74;99301.88;5114174;28;20208;-59
2022/03/09 08:12:28;;;;;;;0.00;0.00;;;;;;;0.05;58.38;99307.25;5108419;28;20194;-60
2022/03/09 08:14:54;;;;;;;0.00;0.00;;;;;;;0.20;57.56;99305.72;5113338;27;20273;-60
2022/03/09 08:17:21;;;;;;;0.00;0.00;;;;;;;0.35;55.12;99310.19;5114011;28;20215;-59
2022/03/09 08:19:48;;;;;;;0.00;0.00;;;;;;;0.55;55.04;99321.28;5113996;28;20222;-60
2022/03/09 08:22:15;;;;;;;0.00;0.00;;;;;;;0.77;55.98;99322.88;5111846;28;20789;-59
2022/03/09 08:24:43;;;;;;;0.00;0.00;;;;;;;0.94;56.66;99322.94;5113384;28;20201;-59
2022/03/09 08:27:11;;;;;;;0.00;0.00;;;;;;;1.12;56.32;99326.34;5113869;28;20210;-58
2022/03/09 08:29:38;;;;;;;0.00;0.00;;;;;;;1.27;55.53;99327.34;5108593;28;20220;-59
2022/03/09 08:32:05;;;;;;;0.00;0.00;;;;;;;1.35;55.23;99327.00;5113512;28;20193;-58
2022/03/09 08:34:32;;;;;;;0.00;0.00;;;;;;;1.46;54.14;99323.88;5113326;28;20196;-58
2022/03/09 08:36:59;;;;;;;0.00;0.00;;;;;;;1.58;54.09;99327.59;5113368;28;20218;-58
2022/03/09 08:39:28;;;;;;;0.00;0.00;;;;;;;1.67;54.06;99334.03;5111864;28;20206;-58
2022/03/09 08:41:56;;;;;;;0.00;0.00;;;;;;;1.78;53.43;99336.88;5103662;28;20660;-58
2022/03/09 08:44:24;;;;;;;0.00;0.00;;;;;;;1.88;54.48;99340.66;5112875;28;20188;-59
2022/03/09 08:46:53;;;;;;;0.00;0.00;;;;;;;1.98;54.06;99340.22;5113555;28;20181;-59
2022/03/09 08:49:20;;;;;;;0.00;0.00;;;;;;;2.13;54.26;99344.53;5111799;28;20241;-59
2022/03/09 08:51:46;;;;;;;0.00;0.00;;;;;;;2.08;54.95;99346.56;5108456;28;20199;-59
2022/03/09 08:54:13;;;;;;;0.00;0.00;;;;;;;2.16;55.16;99351.28;5104356;28;20217;-59
2022/03/09 08:56:40;;;;;;;0.00;0.00;;;;;;;2.28;54.91;99357.53;5105013;28;20205;-59
2022/03/09 08:59:08;;;;;;;0.00;0.00;;;;;;;2.31;55.77;99365.09;5111539;28;20206;-59
2022/03/09 09:01:35;;;;;;;0.00;0.00;;;;;;;2.42;54.68;99365.38;5106801;28;20190;-59
2022/03/09 09:04:01;;;;;;;0.00;0.00;;;;;;;2.53;53.97;99362.25;5092411;28;20190;-59
2022/03/09 09:06:29;;;;;;;0.00;0.00;;;;;;;2.62;53.26;99361.78;5074772;28;20188;-59
2022/03/09 09:08:56;;;;;;;0.00;0.00;;;;;;;2.68;52.69;99363.19;5098515;28;20687;-59
2022/03/09 09:11:22;;;;;;;0.00;0.00;;;;;;;2.72;51.94;99367.25;5111629;28;20209;-58
2022/03/09 09:13:49;;;;;;;0.00;0.00;;;;;;;2.68;51.85;99358.03;5112656;28;20192;-59
2022/03/09 09:16:18;;;;;;;0.00;0.00;;;;;;;2.79;51.67;99362.59;5112634;28;20715;-59
2022/03/09 09:18:44;;;;;;;0.00;0.00;;;;;;;2.92;51.51;99358.44;5112728;28;20677;-59
2022/03/09 09:21:11;;;;;;;0.00;0.00;;;;;;;2.95;50.87;99357.44;5112988;28;20681;-59
2022/03/09 09:23:39;;;;;;;0.00;0.00;;;;;;;3.04;50.45;99348.34;5112637;28;20182;-59
2022/03/09 09:26:06;;;;;;;0.00;0.00;;;;;;;3.04;51.16;99361.25;5094141;28;20559;-59
2022/03/09 09:28:33;;;;;;;0.00;0.00;;;;;;;3.10;49.97;99359.19;5112879;28;20189;-58
2022/03/09 09:31:00;;;;;;;0.00;0.00;;;;;;;3.14;50.61;99354.66;5094440;28;20262;-58
2022/03/09 09:33:28;;;;;;;0.00;0.00;;;;;;;3.23;50.64;99356.75;5112506;28;20193;-58
2022/03/09 09:35:55;;;;;;;0.00;0.00;;;;;;;3.21;51.19;99355.16;5112252;28;20205;-58
2022/03/09 09:38:21;;;;;;;0.00;0.00;;;;;;;3.39;50.12;99353.31;5112411;28;20181;-58
2022/03/09 09:40:51;;;;;;;0.00;0.00;;;;;;;3.48;50.16;99351.94;5112667;28;20684;-58
2022/03/09 09:43:17;;;;;;;0.00;0.00;;;;;;;3.57;49.51;99351.41;5112270;28;20243;-58
2022/03/09 09:45:44;;;;;;;0.00;0.00;;;;;;;3.59;49.55;99341.81;5112121;28;20182;-58
2022/03/09 09:48:13;;;;;;;0.00;0.00;;;;;;;3.71;49.82;99353.19;5111093;28;20191;-58
2022/03/09 09:50:42;;;;;;;0.00;0.00;;;;;;;3.81;50.11;99356.91;5112298;28;20202;-60
2022/03/09 09:53:11;;;;;;;0.00;0.00;;;;;;;3.83;50.69;99347.31;5112255;28;20205;-60
2022/03/09 09:55:39;;;;;;;0.00;0.00;;;;;;;3.82;50.62;99342.25;5111879;28;20178;-59
2022/03/09 09:58:06;;;;;;;0.00;0.00;;;;;;;3.97;49.57;99349.09;5112277;28;20810;-59
2022/03/09 10:00:33;;;;;;;0.00;0.00;;;;;;;4.10;49.93;99345.78;5112173;28;20219;-59
2022/03/09 10:03:00;;;;;;;0.00;0.00;;;;;;;4.16;50.67;99340.25;5093805;28;20195;-59
2022/03/09 10:05:27;;;;;;;0.00;0.00;;;;;;;4.27;48.82;99342.19;5091224;28;20189;-59
2022/03/09 10:08:17;;;;;;;0.00;0.00;;;;;;;4.33;50.03;99335.78;5091827;28;20180;-59
2022/03/09 10:10:55;;;;;;;0.00;0.00;;;;;;;4.35;49.03;99346.88;5091853;28;20214;-59
2022/03/09 10:13:24;;;;;;;0.00;0.00;;;;;;;4.44;48.88;99343.72;5091492;28;20211;-59
2022/03/09 10:16:07;;;;;;;0.00;0.00;;;;;;;4.54;48.25;99349.19;5091107;28;20196;-59
2022/03/09 10:18:35;;;;;;;0.00;0.00;;;;;;;4.60;48.79;99347.97;5091630;28;20188;-59
2022/03/09 10:21:14;;;;;;;0.00;0.00;;;;;;;4.64;47.92;99346.84;5091801;28;20211;-59
2022/03/09 10:23:57;;;;;;;0.00;0.00;;;;;;;4.77;48.22;99346.94;5091352;28;20205;-59
2022/03/09 10:26:25;;;;;;;0.00;0.00;;;;;;;4.91;48.16;99343.47;5091420;28;20186;-59
2022/03/09 10:28:58;;;;;;;0.00;0.00;;;;;;;4.88;47.16;99344.47;5091699;28;20180;-59
2022/03/09 10:31:32;;;;;;;0.00;0.00;;;;;;;4.92;47.54;99342.53;5090922;28;20183;-60
2022/03/09 10:34:07;;;;;;;0.00;0.00;;;;;;;5.03;47.33;99340.09;5090746;28;20182;-60
2022/03/09 10:36:34;;;;;;;0.00;0.00;;;;;;;5.16;46.37;99343.56;5091046;28;20216;-59
2022/03/09 10:39:13;;;;;;;0.00;0.00;;;;;;;5.26;45.28;99337.81;5091258;28;20211;-60
2022/03/09 10:41:41;;;;;;;0.00;0.00;;;;;;;5.37;44.98;99332.72;5101501;28;20189;-59
2022/03/09 10:44:08;;;;;;;0.00;0.00;;;;;;;5.50;45.40;99335.38;5110929;28;20757;-59
2022/03/09 10:46:42;;;;;;;0.00;0.00;;;;;;;5.58;45.77;99340.03;5106198;28;20268;-59
2022/03/09 10:49:11;;;;;;;0.00;0.00;;;;;;;5.58;44.61;99330.50;5090780;28;20277;-60
2022/03/09 10:51:39;;;;;;;0.00;0.00;;;;;;;5.66;44.92;99335.19;5091278;28;20205;-59
2022/03/09 10:54:09;;;;;;;0.00;0.00;;;;;;;5.74;44.60;99325.13;5090642;28;20186;-59
2022/03/09 10:56:38;;;;;;;0.00;0.00;;;;;;;5.85;43.48;99318.41;5090937;28;20232;-57
2022/03/09 10:59:13;;;;;;;0.00;0.00;;;;;;;5.97;43.20;99319.31;5090726;28;20194;-60
2022/03/09 11:01:40;;;;;;;0.00;0.00;;;;;;;6.12;42.61;99318.31;5090533;28;20189;-61
2022/03/09 11:04:16;;;;;;;0.00;0.00;;;;;;;6.16;42.23;99311.16;5090337;28;20176;-60
2022/03/09 11:06:47;;;;;;;0.00;0.00;;;;;;;6.29;41.09;99311.13;5091130;28;20686;-60
2022/03/09 11:09:16;;;;;;;0.00;0.00;;;;;;;6.35;41.94;99306.38;5090931;28;20189;-60
2022/03/09 11:11:46;;;;;;;0.00;0.00;;;;;;;6.33;42.60;99300.47;5091484;28;20195;-60
2022/03/09 11:14:13;;;;;;;0.00;0.00;;;;;;;6.45;42.28;99293.59;5086858;28;20205;-60
2022/03/09 11:16:42;;;;;;;0.00;0.00;;;;;;;6.57;42.21;99304.03;5109845;28;20214;-60
2022/03/09 11:19:09;;;;;;;0.00;0.00;;;;;;;6.82;42.24;99307.47;5073899;28;20222;-60
2022/03/09 11:21:36;;;;;;;0.00;0.00;;;;;;;6.91;40.66;99297.25;5090007;28;20191;-60
2022/03/09 11:24:06;;;;;;;0.00;0.00;;;;;;;7.04;41.93;99299.78;5089631;28;20654;-60
2022/03/09 11:26:36;;;;;;;0.00;0.00;;;;;;;7.14;42.50;99293.91;5092662;28;20239;-60
2022/03/09 11:29:06;;;;;;;0.00;0.00;;;;;;;7.18;41.98;99296.19;5110563;28;20187;-60
2022/03/09 11:31:46;;;;;;;0.00;0.00;;;;;;;7.24;41.56;99300.94;5110427;28;20218;-60
2022/03/09 11:34:32;;;;;;;0.00;0.00;;;;;;;7.36;41.64;99308.78;5109590;28;20228;-61
2022/03/09 11:37:01;;;;;;;0.00;0.00;;;;;;;7.51;40.69;99302.41;5110004;28;20568;-60
2022/03/09 11:39:28;;;;;;;0.00;0.00;;;;;;;7.59;40.91;99301.00;5110434;28;20202;-61
2022/03/09 11:42:31;;;;;;;0.00;0.00;;;;;;;7.62;41.24;99296.44;5110017;28;20648;-60